sensor_id;sensor_type;location;lat;lon;timestamp;P1;durP1;ratioP1;P2;durP2;ratioP2
74777;SDS011;63298;53.164;8.610;2023-02-26T00:01:30;4.30;;;0.90;;
74777;SDS011;63298;53.164;8.610;2023-02-26T00:03:57;2.55;;;0.75;;
74777;SDS011;63298;53.164;8.610;2023-02-26T00:06:34;2.05;;;0.90;;
74777;SDS011;63298;53.164;8.610;2023-02-26T00:09:02;2.60;;;0.77;;
74777;SDS011;63298;53.164;8.610;2023-02-26T00:11:28;2.38;;;0.82;;
74777;SDS011;63298;53.164;8.610;2023-02-26T00:13:54;2.20;;;0.82;;
74777;SDS011;63298;53.164;8.610;2023-02-26T00:18:48;2.50;;;0.82;;
74777;SDS011;63298;53.164;8.610;2023-02-26T00:21:20;1.42;;;0.70;;
74777;SDS011;63298;53.164;8.610;2023-02-26T00:23:48;1.38;;;0.82;;
74777;SDS011;63298;53.164;8.610;2023-02-26T00:26:16;3.10;;;0.60;;
74777;SDS011;63298;53.164;8.610;2023-02-26T00:28:42;2.47;;;0.50;;
74777;SDS011;63298;53.164;8.610;2023-02-26T00:31:08;3.40;;;0.60;;
74777;SDS011;63298;53.164;8.610;2023-02-26T00:33:34;3.75;;;0.60;;
74777;SDS011;63298;53.164;8.610;2023-02-26T00:36:43;4.35;;;0.70;;
74777;SDS011;63298;53.164;8.610;2023-02-26T00:41:57;2.03;;;0.70;;
74777;SDS011;63298;53.164;8.610;2023-02-26T00:44:23;0.65;;;0.50;;
74777;SDS011;63298;53.164;8.610;2023-02-26T00:46:57;1.55;;;0.80;;
74777;SDS011;63298;53.164;8.610;2023-02-26T00:52:19;3.47;;;0.63;;
74777;SDS011;63298;53.164;8.610;2023-02-26T00:55:03;3.72;;;1.02;;
74777;SDS011;63298;53.164;8.610;2023-02-26T00:57:28;2.65;;;1.10;;
74777;SDS011;63298;53.164;8.610;2023-02-26T00:59:54;1.80;;;0.65;;
74777;SDS011;63298;53.164;8.610;2023-02-26T01:02:19;1.33;;;0.60;;
74777;SDS011;63298;53.164;8.610;2023-02-26T01:04:45;1.75;;;0.63;;
74777;SDS011;63298;53.164;8.610;2023-02-26T01:07:12;2.13;;;0.60;;
74777;SDS011;63298;53.164;8.610;2023-02-26T01:09:39;5.78;;;0.80;;
74777;SDS011;63298;53.164;8.610;2023-02-26T01:12:09;4.78;;;0.63;;
74777;SDS011;63298;53.164;8.610;2023-02-26T01:14:35;1.30;;;0.57;;
74777;SDS011;63298;53.164;8.610;2023-02-26T01:17:02;4.50;;;0.65;;
74777;SDS011;63298;53.164;8.610;2023-02-26T01:19:53;3.15;;;0.57;;
74777;SDS011;63298;53.164;8.610;2023-02-26T01:25:03;1.02;;;0.55;;
74777;SDS011;63298;53.164;8.610;2023-02-26T01:27:31;1.45;;;0.80;;
74777;SDS011;63298;53.164;8.610;2023-02-26T01:29:57;6.18;;;0.82;;
74777;SDS011;63298;53.164;8.610;2023-02-26T01:41:09;5.68;;;1.15;;
74777;SDS011;63298;53.164;8.610;2023-02-26T01:44:13;1.65;;;0.40;;
74777;SDS011;63298;53.164;8.610;2023-02-26T01:49:45;1.30;;;0.60;;
74777;SDS011;63298;53.164;8.610;2023-02-26T01:55:18;1.85;;;0.52;;
74777;SDS011;63298;53.164;8.610;2023-02-26T01:57:46;1.67;;;0.63;;
74777;SDS011;63298;53.164;8.610;2023-02-26T02:00:13;2.78;;;0.80;;
74777;SDS011;63298;53.164;8.610;2023-02-26T02:02:40;1.27;;;0.60;;
74777;SDS011;63298;53.164;8.610;2023-02-26T02:05:09;5.55;;;0.93;;
74777;SDS011;63298;53.164;8.610;2023-02-26T02:07:39;2.15;;;0.50;;
74777;SDS011;63298;53.164;8.610;2023-02-26T02:10:04;2.25;;;0.52;;
74777;SDS011;63298;53.164;8.610;2023-02-26T02:12:34;3.38;;;0.60;;
74777;SDS011;63298;53.164;8.610;2023-02-26T02:15:20;2.95;;;0.75;;
74777;SDS011;63298;53.164;8.610;2023-02-26T02:31:54;3.92;;;0.98;;
74777;SDS011;63298;53.164;8.610;2023-02-26T02:37:47;1.10;;;0.60;;
74777;SDS011;63298;53.164;8.610;2023-02-26T02:40:23;4.47;;;0.73;;
74777;SDS011;63298;53.164;8.610;2023-02-26T02:45:33;2.55;;;0.68;;
74777;SDS011;63298;53.164;8.610;2023-02-26T02:48:05;1.77;;;0.50;;
74777;SDS011;63298;53.164;8.610;2023-02-26T02:50:47;0.70;;;0.35;;
74777;SDS011;63298;53.164;8.610;2023-02-26T02:53:19;1.52;;;0.80;;
74777;SDS011;63298;53.164;8.610;2023-02-26T02:55:59;1.88;;;0.55;;
74777;SDS011;63298;53.164;8.610;2023-02-26T02:58:31;0.50;;;0.47;;
74777;SDS011;63298;53.164;8.610;2023-02-26T03:01:03;2.00;;;1.00;;
74777;SDS011;63298;53.164;8.610;2023-02-26T03:06:07;1.58;;;0.55;;
74777;SDS011;63298;53.164;8.610;2023-02-26T03:08:39;4.50;;;0.55;;
74777;SDS011;63298;53.164;8.610;2023-02-26T03:11:07;2.97;;;0.68;;
74777;SDS011;63298;53.164;8.610;2023-02-26T03:13:33;6.40;;;1.10;;
74777;SDS011;63298;53.164;8.610;2023-02-26T03:21:38;0.55;;;0.52;;
74777;SDS011;63298;53.164;8.610;2023-02-26T03:32:30;1.60;;;0.65;;
74777;SDS011;63298;53.164;8.610;2023-02-26T03:35:16;3.28;;;0.50;;
74777;SDS011;63298;53.164;8.610;2023-02-26T03:37:48;6.38;;;0.95;;
74777;SDS011;63298;53.164;8.610;2023-02-26T03:40:27;3.58;;;0.60;;
74777;SDS011;63298;53.164;8.610;2023-02-26T03:42:59;2.58;;;0.52;;
74777;SDS011;63298;53.164;8.610;2023-02-26T03:45:34;1.05;;;0.50;;
74777;SDS011;63298;53.164;8.610;2023-02-26T03:48:05;2.67;;;1.00;;
74777;SDS011;63298;53.164;8.610;2023-02-26T03:50:37;2.53;;;0.40;;
74777;SDS011;63298;53.164;8.610;2023-02-26T03:53:05;3.30;;;0.73;;
74777;SDS011;63298;53.164;8.610;2023-02-26T03:55:35;4.20;;;0.60;;
74777;SDS011;63298;53.164;8.610;2023-02-26T03:58:03;3.10;;;0.70;;
74777;SDS011;63298;53.164;8.610;2023-02-26T04:00:29;0.55;;;0.40;;
74777;SDS011;63298;53.164;8.610;2023-02-26T04:03:05;4.30;;;0.73;;
74777;SDS011;63298;53.164;8.610;2023-02-26T04:05:39;2.70;;;0.75;;
74777;SDS011;63298;53.164;8.610;2023-02-26T04:08:09;1.85;;;0.30;;
74777;SDS011;63298;53.164;8.610;2023-02-26T04:10:53;2.50;;;0.50;;
74777;SDS011;63298;53.164;8.610;2023-02-26T04:13:23;3.03;;;0.75;;
74777;SDS011;63298;53.164;8.610;2023-02-26T04:15:49;1.70;;;0.40;;
74777;SDS011;63298;53.164;8.610;2023-02-26T04:18:14;5.05;;;0.43;;
74777;SDS011;63298;53.164;8.610;2023-02-26T04:20:40;3.13;;;0.70;;
74777;SDS011;63298;53.164;8.610;2023-02-26T04:23:05;0.50;;;0.50;;
74777;SDS011;63298;53.164;8.610;2023-02-26T04:25:31;2.75;;;0.45;;
74777;SDS011;63298;53.164;8.610;2023-02-26T04:27:56;1.35;;;0.60;;
74777;SDS011;63298;53.164;8.610;2023-02-26T04:30:21;3.22;;;0.70;;
74777;SDS011;63298;53.164;8.610;2023-02-26T04:32:47;3.15;;;0.70;;
74777;SDS011;63298;53.164;8.610;2023-02-26T04:35:12;1.45;;;0.30;;
74777;SDS011;63298;53.164;8.610;2023-02-26T04:37:38;1.70;;;0.52;;
74777;SDS011;63298;53.164;8.610;2023-02-26T04:40:03;4.00;;;0.50;;
74777;SDS011;63298;53.164;8.610;2023-02-26T04:42:29;4.85;;;0.70;;
74777;SDS011;63298;53.164;8.610;2023-02-26T04:44:55;1.33;;;0.40;;
74777;SDS011;63298;53.164;8.610;2023-02-26T04:47:21;2.05;;;0.70;;
74777;SDS011;63298;53.164;8.610;2023-02-26T04:49:46;4.72;;;0.70;;
74777;SDS011;63298;53.164;8.610;2023-02-26T04:52:13;2.42;;;0.77;;
74777;SDS011;63298;53.164;8.610;2023-02-26T04:54:39;0.75;;;0.60;;
74777;SDS011;63298;53.164;8.610;2023-02-26T04:57:04;1.95;;;0.80;;
74777;SDS011;63298;53.164;8.610;2023-02-26T04:59:29;2.88;;;0.52;;
74777;SDS011;63298;53.164;8.610;2023-02-26T05:01:55;4.55;;;0.73;;
74777;SDS011;63298;53.164;8.610;2023-02-26T05:04:20;1.17;;;0.70;;
74777;SDS011;63298;53.164;8.610;2023-02-26T05:06:45;2.15;;;0.65;;
74777;SDS011;63298;53.164;8.610;2023-02-26T05:09:11;2.42;;;0.60;;
74777;SDS011;63298;53.164;8.610;2023-02-26T05:11:37;4.25;;;0.68;;
74777;SDS011;63298;53.164;8.610;2023-02-26T05:14:02;2.60;;;0.65;;
74777;SDS011;63298;53.164;8.610;2023-02-26T05:16:27;3.35;;;0.45;;
74777;SDS011;63298;53.164;8.610;2023-02-26T05:18:53;1.30;;;0.40;;
74777;SDS011;63298;53.164;8.610;2023-02-26T05:21:18;4.10;;;0.73;;
74777;SDS011;63298;53.164;8.610;2023-02-26T05:23:43;1.47;;;0.50;;
74777;SDS011;63298;53.164;8.610;2023-02-26T05:26:09;3.60;;;0.60;;
74777;SDS011;63298;53.164;8.610;2023-02-26T05:28:35;2.33;;;0.40;;
74777;SDS011;63298;53.164;8.610;2023-02-26T05:31:03;1.05;;;0.60;;
74777;SDS011;63298;53.164;8.610;2023-02-26T05:33:29;3.42;;;0.90;;
74777;SDS011;63298;53.164;8.610;2023-02-26T05:35:54;6.57;;;0.63;;
74777;SDS011;63298;53.164;8.610;2023-02-26T05:38:19;2.13;;;0.50;;
74777;SDS011;63298;53.164;8.610;2023-02-26T05:40:45;3.08;;;0.52;;
74777;SDS011;63298;53.164;8.610;2023-02-26T05:43:10;2.95;;;0.80;;
74777;SDS011;63298;53.164;8.610;2023-02-26T05:45:36;0.77;;;0.43;;
74777;SDS011;63298;53.164;8.610;2023-02-26T05:48:01;6.45;;;0.47;;
74777;SDS011;63298;53.164;8.610;2023-02-26T05:50:26;2.50;;;0.68;;
74777;SDS011;63298;53.164;8.610;2023-02-26T05:52:52;0.47;;;0.47;;
74777;SDS011;63298;53.164;8.610;2023-02-26T05:55:17;1.17;;;0.60;;
74777;SDS011;63298;53.164;8.610;2023-02-26T05:57:43;1.10;;;0.60;;
74777;SDS011;63298;53.164;8.610;2023-02-26T06:00:08;2.47;;;0.60;;
74777;SDS011;63298;53.164;8.610;2023-02-26T06:02:35;3.25;;;0.75;;
74777;SDS011;63298;53.164;8.610;2023-02-26T06:05:01;2.03;;;1.00;;
74777;SDS011;63298;53.164;8.610;2023-02-26T06:07:26;0.75;;;0.60;;
74777;SDS011;63298;53.164;8.610;2023-02-26T06:09:52;0.57;;;0.30;;
74777;SDS011;63298;53.164;8.610;2023-02-26T06:12:17;2.33;;;0.60;;
74777;SDS011;63298;53.164;8.610;2023-02-26T06:14:42;1.10;;;0.52;;
74777;SDS011;63298;53.164;8.610;2023-02-26T06:17:08;3.30;;;0.53;;
74777;SDS011;63298;53.164;8.610;2023-02-26T06:19:33;5.57;;;0.80;;
74777;SDS011;63298;53.164;8.610;2023-02-26T06:21:59;2.65;;;0.82;;
74777;SDS011;63298;53.164;8.610;2023-02-26T06:24:24;6.13;;;0.60;;
74777;SDS011;63298;53.164;8.610;2023-02-26T06:26:50;1.08;;;0.68;;
74777;SDS011;63298;53.164;8.610;2023-02-26T06:29:15;2.00;;;0.50;;
74777;SDS011;63298;53.164;8.610;2023-02-26T06:31:40;1.17;;;0.40;;
74777;SDS011;63298;53.164;8.610;2023-02-26T06:34:06;3.47;;;0.50;;
74777;SDS011;63298;53.164;8.610;2023-02-26T06:36:31;1.90;;;0.40;;
74777;SDS011;63298;53.164;8.610;2023-02-26T06:38:56;3.67;;;0.63;;
74777;SDS011;63298;53.164;8.610;2023-02-26T06:41:21;0.40;;;0.40;;
74777;SDS011;63298;53.164;8.610;2023-02-26T06:43:47;0.68;;;0.50;;
74777;SDS011;63298;53.164;8.610;2023-02-26T06:46:12;2.15;;;0.60;;
74777;SDS011;63298;53.164;8.610;2023-02-26T06:48:37;3.92;;;0.80;;
74777;SDS011;63298;53.164;8.610;2023-02-26T06:51:03;3.60;;;0.90;;
74777;SDS011;63298;53.164;8.610;2023-02-26T06:53:28;1.75;;;0.77;;
74777;SDS011;63298;53.164;8.610;2023-02-26T06:55:54;2.53;;;0.70;;
74777;SDS011;63298;53.164;8.610;2023-02-26T06:58:19;0.70;;;0.70;;
74777;SDS011;63298;53.164;8.610;2023-02-26T07:00:45;0.80;;;0.80;;
74777;SDS011;63298;53.164;8.610;2023-02-26T07:03:11;1.60;;;0.98;;
74777;SDS011;63298;53.164;8.610;2023-02-26T07:09:06;4.65;;;1.00;;
74777;SDS011;63298;53.164;8.610;2023-02-26T07:11:32;4.55;;;0.65;;
74777;SDS011;63298;53.164;8.610;2023-02-26T07:13:57;0.93;;;0.75;;
74777;SDS011;63298;53.164;8.610;2023-02-26T07:16:22;2.30;;;0.60;;
74777;SDS011;63298;53.164;8.610;2023-02-26T07:18:48;4.13;;;0.60;;
74777;SDS011;63298;53.164;8.610;2023-02-26T07:21:13;1.55;;;0.80;;
74777;SDS011;63298;53.164;8.610;2023-02-26T07:23:38;3.38;;;0.80;;
74777;SDS011;63298;53.164;8.610;2023-02-26T07:26:04;3.22;;;0.80;;
74777;SDS011;63298;53.164;8.610;2023-02-26T07:28:29;3.72;;;0.80;;
74777;SDS011;63298;53.164;8.610;2023-02-26T07:30:55;5.05;;;0.93;;
74777;SDS011;63298;53.164;8.610;2023-02-26T07:33:21;2.25;;;0.70;;
74777;SDS011;63298;53.164;8.610;2023-02-26T07:35:46;1.30;;;0.95;;
74777;SDS011;63298;53.164;8.610;2023-02-26T07:38:12;3.05;;;0.80;;
74777;SDS011;63298;53.164;8.610;2023-02-26T07:40:37;1.95;;;0.55;;
74777;SDS011;63298;53.164;8.610;2023-02-26T07:43:02;6.70;;;1.42;;
74777;SDS011;63298;53.164;8.610;2023-02-26T07:45:28;4.05;;;0.93;;
74777;SDS011;63298;53.164;8.610;2023-02-26T07:47:53;1.95;;;0.80;;
74777;SDS011;63298;53.164;8.610;2023-02-26T07:50:19;2.67;;;1.17;;
74777;SDS011;63298;53.164;8.610;2023-02-26T07:52:45;1.08;;;0.73;;
74777;SDS011;63298;53.164;8.610;2023-02-26T07:55:12;6.70;;;0.90;;
74777;SDS011;63298;53.164;8.610;2023-02-26T07:57:37;2.60;;;0.82;;
74777;SDS011;63298;53.164;8.610;2023-02-26T08:00:03;3.70;;;0.73;;
74777;SDS011;63298;53.164;8.610;2023-02-26T08:02:29;3.22;;;1.02;;
74777;SDS011;63298;53.164;8.610;2023-02-26T08:04:55;3.95;;;0.95;;
74777;SDS011;63298;53.164;8.610;2023-02-26T08:07:23;1.10;;;0.73;;
74777;SDS011;63298;53.164;8.610;2023-02-26T08:09:48;1.50;;;0.70;;
74777;SDS011;63298;53.164;8.610;2023-02-26T08:12:14;2.20;;;0.90;;
74777;SDS011;63298;53.164;8.610;2023-02-26T08:14:39;6.00;;;0.82;;
74777;SDS011;63298;53.164;8.610;2023-02-26T08:17:04;2.72;;;0.50;;
74777;SDS011;63298;53.164;8.610;2023-02-26T08:23:15;0.82;;;0.60;;
74777;SDS011;63298;53.164;8.610;2023-02-26T08:25:41;2.15;;;0.80;;
74777;SDS011;63298;53.164;8.610;2023-02-26T08:28:06;6.00;;;1.20;;
74777;SDS011;63298;53.164;8.610;2023-02-26T08:30:31;4.40;;;1.00;;
74777;SDS011;63298;53.164;8.610;2023-02-26T08:32:57;2.00;;;0.50;;
74777;SDS011;63298;53.164;8.610;2023-02-26T08:35:22;3.35;;;1.25;;
74777;SDS011;63298;53.164;8.610;2023-02-26T08:37:48;0.52;;;0.52;;
74777;SDS011;63298;53.164;8.610;2023-02-26T08:40:13;4.22;;;0.70;;
74777;SDS011;63298;53.164;8.610;2023-02-26T08:42:39;1.95;;;1.13;;
74777;SDS011;63298;53.164;8.610;2023-02-26T08:45:04;1.88;;;0.70;;
74777;SDS011;63298;53.164;8.610;2023-02-26T08:47:30;1.33;;;0.55;;
74777;SDS011;63298;53.164;8.610;2023-02-26T08:49:55;4.20;;;0.70;;
74777;SDS011;63298;53.164;8.610;2023-02-26T08:52:21;0.50;;;0.50;;
74777;SDS011;63298;53.164;8.610;2023-02-26T08:54:46;5.00;;;0.90;;
74777;SDS011;63298;53.164;8.610;2023-02-26T08:57:11;5.13;;;0.80;;
74777;SDS011;63298;53.164;8.610;2023-02-26T08:59:37;2.33;;;1.10;;
74777;SDS011;63298;53.164;8.610;2023-02-26T09:02:02;5.25;;;1.17;;
74777;SDS011;63298;53.164;8.610;2023-02-26T09:04:27;3.10;;;0.77;;
74777;SDS011;63298;53.164;8.610;2023-02-26T09:06:53;2.05;;;0.68;;
74777;SDS011;63298;53.164;8.610;2023-02-26T09:09:19;1.65;;;0.65;;
74777;SDS011;63298;53.164;8.610;2023-02-26T09:11:44;2.67;;;0.93;;
74777;SDS011;63298;53.164;8.610;2023-02-26T09:14:10;0.60;;;0.60;;
74777;SDS011;63298;53.164;8.610;2023-02-26T09:16:36;1.50;;;0.70;;
74777;SDS011;63298;53.164;8.610;2023-02-26T09:19:02;2.25;;;1.00;;
74777;SDS011;63298;53.164;8.610;2023-02-26T09:21:30;8.43;;;0.82;;
74777;SDS011;63298;53.164;8.610;2023-02-26T09:23:56;0.98;;;0.73;;
74777;SDS011;63298;53.164;8.610;2023-02-26T09:26:22;2.00;;;0.45;;
74777;SDS011;63298;53.164;8.610;2023-02-26T09:28:47;0.47;;;0.40;;
74777;SDS011;63298;53.164;8.610;2023-02-26T09:31:13;2.80;;;0.60;;
74777;SDS011;63298;53.164;8.610;2023-02-26T09:33:38;0.50;;;0.50;;
74777;SDS011;63298;53.164;8.610;2023-02-26T09:36:03;3.08;;;0.70;;
74777;SDS011;63298;53.164;8.610;2023-02-26T09:38:29;2.35;;;1.00;;
74777;SDS011;63298;53.164;8.610;2023-02-26T09:41:05;0.85;;;0.47;;
74777;SDS011;63298;53.164;8.610;2023-02-26T09:49:45;2.00;;;0.75;;
74777;SDS011;63298;53.164;8.610;2023-02-26T09:52:29;4.13;;;0.80;;
74777;SDS011;63298;53.164;8.610;2023-02-26T09:55:10;1.63;;;0.70;;
74777;SDS011;63298;53.164;8.610;2023-02-26T09:57:42;1.23;;;0.55;;
74777;SDS011;63298;53.164;8.610;2023-02-26T10:00:57;2.10;;;0.50;;
74777;SDS011;63298;53.164;8.610;2023-02-26T10:08:20;1.98;;;0.65;;
74777;SDS011;63298;53.164;8.610;2023-02-26T10:10:56;3.20;;;0.68;;
74777;SDS011;63298;53.164;8.610;2023-02-26T10:13:47;1.20;;;0.60;;
74777;SDS011;63298;53.164;8.610;2023-02-26T10:16:17;1.23;;;0.60;;
74777;SDS011;63298;53.164;8.610;2023-02-26T10:18:50;1.80;;;0.70;;
74777;SDS011;63298;53.164;8.610;2023-02-26T10:21:21;1.85;;;0.60;;
74777;SDS011;63298;53.164;8.610;2023-02-26T10:23:53;1.17;;;0.50;;
74777;SDS011;63298;53.164;8.610;2023-02-26T10:34:34;1.45;;;0.93;;
74777;SDS011;63298;53.164;8.610;2023-02-26T10:37:12;0.43;;;0.20;;
74777;SDS011;63298;53.164;8.610;2023-02-26T10:42:35;1.25;;;0.50;;
74777;SDS011;63298;53.164;8.610;2023-02-26T10:48:21;0.80;;;0.65;;
74777;SDS011;63298;53.164;8.610;2023-02-26T10:50:48;0.68;;;0.40;;
74777;SDS011;63298;53.164;8.610;2023-02-26T10:53:16;2.10;;;0.45;;
74777;SDS011;63298;53.164;8.610;2023-02-26T10:55:46;2.08;;;0.57;;
74777;SDS011;63298;53.164;8.610;2023-02-26T10:58:28;1.13;;;0.40;;
74777;SDS011;63298;53.164;8.610;2023-02-26T11:00:54;1.02;;;0.45;;
74777;SDS011;63298;53.164;8.610;2023-02-26T11:05:55;3.30;;;0.35;;
74777;SDS011;63298;53.164;8.610;2023-02-26T11:08:28;2.45;;;0.50;;
74777;SDS011;63298;53.164;8.610;2023-02-26T11:10:57;3.22;;;0.43;;
74777;SDS011;63298;53.164;8.610;2023-02-26T11:13:26;2.90;;;0.50;;
74777;SDS011;63298;53.164;8.610;2023-02-26T11:15:54;1.95;;;0.50;;
74777;SDS011;63298;53.164;8.610;2023-02-26T11:18:25;1.48;;;0.50;;
74777;SDS011;63298;53.164;8.610;2023-02-26T11:20:57;0.98;;;0.60;;
74777;SDS011;63298;53.164;8.610;2023-02-26T11:23:25;3.50;;;1.20;;
74777;SDS011;63298;53.164;8.610;2023-02-26T11:26:00;3.17;;;1.25;;
74777;SDS011;63298;53.164;8.610;2023-02-26T11:33:37;2.42;;;0.90;;
74777;SDS011;63298;53.164;8.610;2023-02-26T11:36:11;2.47;;;1.15;;
74777;SDS011;63298;53.164;8.610;2023-02-26T11:38:39;1.48;;;0.38;;
74777;SDS011;63298;53.164;8.610;2023-02-26T11:41:08;1.88;;;0.60;;
74777;SDS011;63298;53.164;8.610;2023-02-26T11:43:36;2.13;;;0.50;;
74777;SDS011;63298;53.164;8.610;2023-02-26T11:46:06;0.95;;;0.43;;
74777;SDS011;63298;53.164;8.610;2023-02-26T11:48:43;0.77;;;0.40;;
74777;SDS011;63298;53.164;8.610;2023-02-26T11:51:17;3.08;;;0.65;;
74777;SDS011;63298;53.164;8.610;2023-02-26T11:53:53;1.27;;;0.40;;
74777;SDS011;63298;53.164;8.610;2023-02-26T11:56:41;2.13;;;0.77;;
74777;SDS011;63298;53.164;8.610;2023-02-26T11:59:07;3.30;;;0.57;;
74777;SDS011;63298;53.164;8.610;2023-02-26T12:01:43;0.63;;;0.40;;
74777;SDS011;63298;53.164;8.610;2023-02-26T12:04:09;2.08;;;0.40;;
74777;SDS011;63298;53.164;8.610;2023-02-26T12:06:36;0.73;;;0.50;;
74777;SDS011;63298;53.164;8.610;2023-02-26T12:09:02;1.10;;;0.40;;
74777;SDS011;63298;53.164;8.610;2023-02-26T12:11:50;2.97;;;0.70;;
74777;SDS011;63298;53.164;8.610;2023-02-26T12:16:54;0.73;;;0.40;;
74777;SDS011;63298;53.164;8.610;2023-02-26T12:22:07;1.40;;;0.50;;
74777;SDS011;63298;53.164;8.610;2023-02-26T12:30:44;2.65;;;0.20;;
74777;SDS011;63298;53.164;8.610;2023-02-26T12:47:25;0.40;;;0.40;;
74777;SDS011;63298;53.164;8.610;2023-02-26T12:52:49;1.63;;;0.80;;
74777;SDS011;63298;53.164;8.610;2023-02-26T12:58:19;0.63;;;0.43;;
74777;SDS011;63298;53.164;8.610;2023-02-26T13:01:22;1.48;;;0.50;;
74777;SDS011;63298;53.164;8.610;2023-02-26T13:06:55;0.55;;;0.30;;
74777;SDS011;63298;53.164;8.610;2023-02-26T13:21:06;2.78;;;0.80;;
74777;SDS011;63298;53.164;8.610;2023-02-26T13:23:44;0.40;;;0.40;;
74777;SDS011;63298;53.164;8.610;2023-02-26T13:26:24;4.05;;;0.80;;
74777;SDS011;63298;53.164;8.610;2023-02-26T13:28:53;1.67;;;0.80;;
74777;SDS011;63298;53.164;8.610;2023-02-26T13:31:31;2.90;;;1.83;;
74777;SDS011;63298;53.164;8.610;2023-02-26T13:34:16;3.15;;;0.80;;
74777;SDS011;63298;53.164;8.610;2023-02-26T13:36:47;3.63;;;0.60;;
74777;SDS011;63298;53.164;8.610;2023-02-26T13:39:30;2.08;;;1.38;;
74777;SDS011;63298;53.164;8.610;2023-02-26T13:50:25;1.98;;;0.50;;
74777;SDS011;63298;53.164;8.610;2023-02-26T13:52:53;5.78;;;0.60;;
74777;SDS011;63298;53.164;8.610;2023-02-26T13:55:43;3.83;;;0.80;;
74777;SDS011;63298;53.164;8.610;2023-02-26T14:01:46;3.83;;;0.50;;
74777;SDS011;63298;53.164;8.610;2023-02-26T14:03:52;3.05;;;0.40;;
74777;SDS011;63298;53.164;8.610;2023-02-26T14:11:45;2.60;;;0.80;;
74777;SDS011;63298;53.164;8.610;2023-02-26T14:14:42;1.80;;;0.63;;
74777;SDS011;63298;53.164;8.610;2023-02-26T14:19:45;1.97;;;0.70;;
74777;SDS011;63298;53.164;8.610;2023-02-26T14:22:46;4.18;;;0.63;;
74777;SDS011;63298;53.164;8.610;2023-02-26T14:25:44;1.23;;;0.43;;
74777;SDS011;63298;53.164;8.610;2023-02-26T14:28:19;5.57;;;0.98;;
74777;SDS011;63298;53.164;8.610;2023-02-26T14:31:06;1.55;;;0.52;;
74777;SDS011;63298;53.164;8.610;2023-02-26T14:33:45;0.45;;;0.45;;
74777;SDS011;63298;53.164;8.610;2023-02-26T14:36:24;3.58;;;0.70;;
74777;SDS011;63298;53.164;8.610;2023-02-26T14:39:01;1.33;;;0.60;;
74777;SDS011;63298;53.164;8.610;2023-02-26T14:41:31;1.65;;;0.55;;
74777;SDS011;63298;53.164;8.610;2023-02-26T14:44:20;1.52;;;0.70;;
74777;SDS011;63298;53.164;8.610;2023-02-26T14:46:50;3.65;;;0.73;;
74777;SDS011;63298;53.164;8.610;2023-02-26T14:49:20;3.78;;;0.63;;
74777;SDS011;63298;53.164;8.610;2023-02-26T14:51:53;1.48;;;0.60;;
74777;SDS011;63298;53.164;8.610;2023-02-26T15:02:22;0.65;;;0.60;;
74777;SDS011;63298;53.164;8.610;2023-02-26T15:05:21;0.50;;;0.50;;
74777;SDS011;63298;53.164;8.610;2023-02-26T15:10:53;2.53;;;0.77;;
74777;SDS011;63298;53.164;8.610;2023-02-26T15:18:57;1.63;;;0.57;;
74777;SDS011;63298;53.164;8.610;2023-02-26T15:24:03;3.10;;;0.70;;
74777;SDS011;63298;53.164;8.610;2023-02-26T15:26:33;2.60;;;1.20;;
74777;SDS011;63298;53.164;8.610;2023-02-26T15:29:03;2.22;;;0.80;;
74777;SDS011;63298;53.164;8.610;2023-02-26T15:31:41;0.90;;;0.90;;
74777;SDS011;63298;53.164;8.610;2023-02-26T15:34:09;2.10;;;0.85;;
74777;SDS011;63298;53.164;8.610;2023-02-26T15:36:36;0.95;;;0.75;;
74777;SDS011;63298;53.164;8.610;2023-02-26T15:39:07;2.40;;;0.73;;
74777;SDS011;63298;53.164;8.610;2023-02-26T15:41:32;1.17;;;0.80;;
74777;SDS011;63298;53.164;8.610;2023-02-26T15:44:02;2.40;;;0.80;;
74777;SDS011;63298;53.164;8.610;2023-02-26T15:46:32;0.70;;;0.70;;
74777;SDS011;63298;53.164;8.610;2023-02-26T15:49:01;2.15;;;1.35;;
74777;SDS011;63298;53.164;8.610;2023-02-26T15:51:32;0.63;;;0.60;;
74777;SDS011;63298;53.164;8.610;2023-02-26T15:53:58;0.55;;;0.55;;
74777;SDS011;63298;53.164;8.610;2023-02-26T15:56:25;2.83;;;0.70;;
74777;SDS011;63298;53.164;8.610;2023-02-26T15:58:58;0.47;;;0.47;;
74777;SDS011;63298;53.164;8.610;2023-02-26T16:01:26;1.13;;;0.70;;
74777;SDS011;63298;53.164;8.610;2023-02-26T16:03:57;0.88;;;0.70;;
74777;SDS011;63298;53.164;8.610;2023-02-26T16:09:01;1.52;;;0.80;;
74777;SDS011;63298;53.164;8.610;2023-02-26T16:11:33;1.35;;;0.73;;
74777;SDS011;63298;53.164;8.610;2023-02-26T16:14:01;0.60;;;0.60;;
74777;SDS011;63298;53.164;8.610;2023-02-26T16:16:28;1.35;;;0.60;;
74777;SDS011;63298;53.164;8.610;2023-02-26T16:21:33;5.00;;;0.90;;
74777;SDS011;63298;53.164;8.610;2023-02-26T16:24:02;1.25;;;1.05;;
74777;SDS011;63298;53.164;8.610;2023-02-26T16:26:32;1.85;;;0.93;;
74777;SDS011;63298;53.164;8.610;2023-02-26T16:29:06;0.93;;;0.77;;
74777;SDS011;63298;53.164;8.610;2023-02-26T16:31:38;0.65;;;0.65;;
74777;SDS011;63298;53.164;8.610;2023-02-26T16:40:04;2.35;;;0.90;;
74777;SDS011;63298;53.164;8.610;2023-02-26T16:42:44;1.10;;;0.82;;
74777;SDS011;63298;53.164;8.610;2023-02-26T16:47:59;3.05;;;0.85;;
74777;SDS011;63298;53.164;8.610;2023-02-26T16:50:28;3.33;;;1.00;;
74777;SDS011;63298;53.164;8.610;2023-02-26T16:53:21;3.97;;;1.65;;
74777;SDS011;63298;53.164;8.610;2023-02-26T16:55:52;4.90;;;1.80;;
74777;SDS011;63298;53.164;8.610;2023-02-26T16:58:20;3.20;;;1.90;;
74777;SDS011;63298;53.164;8.610;2023-02-26T17:00:53;3.25;;;1.33;;
74777;SDS011;63298;53.164;8.610;2023-02-26T17:03:24;1.55;;;1.45;;
74777;SDS011;63298;53.164;8.610;2023-02-26T17:05:56;2.13;;;1.27;;
74777;SDS011;63298;53.164;8.610;2023-02-26T17:08:33;2.88;;;1.25;;
74777;SDS011;63298;53.164;8.610;2023-02-26T17:11:06;2.92;;;1.40;;
74777;SDS011;63298;53.164;8.610;2023-02-26T17:13:32;1.92;;;1.13;;
74777;SDS011;63298;53.164;8.610;2023-02-26T17:16:07;3.88;;;1.75;;
74777;SDS011;63298;53.164;8.610;2023-02-26T17:18:36;3.33;;;1.58;;
74777;SDS011;63298;53.164;8.610;2023-02-26T17:21:03;3.45;;;1.23;;
74777;SDS011;63298;53.164;8.610;2023-02-26T17:23:30;1.63;;;1.20;;
74777;SDS011;63298;53.164;8.610;2023-02-26T17:29:16;6.95;;;1.45;;
74777;SDS011;63298;53.164;8.610;2023-02-26T17:31:44;3.95;;;1.33;;
74777;SDS011;63298;53.164;8.610;2023-02-26T17:34:10;5.22;;;1.65;;
74777;SDS011;63298;53.164;8.610;2023-02-26T17:36:36;1.75;;;1.45;;
74777;SDS011;63298;53.164;8.610;2023-02-26T17:39:02;2.38;;;1.52;;
74777;SDS011;63298;53.164;8.610;2023-02-26T17:41:27;2.58;;;1.73;;
74777;SDS011;63298;53.164;8.610;2023-02-26T17:43:53;3.67;;;1.35;;
74777;SDS011;63298;53.164;8.610;2023-02-26T17:46:18;3.97;;;1.60;;
74777;SDS011;63298;53.164;8.610;2023-02-26T17:48:43;4.75;;;1.80;;
74777;SDS011;63298;53.164;8.610;2023-02-26T17:51:09;3.22;;;1.25;;
74777;SDS011;63298;53.164;8.610;2023-02-26T17:53:35;2.22;;;1.30;;
74777;SDS011;63298;53.164;8.610;2023-02-26T17:56:00;3.67;;;1.75;;
74777;SDS011;63298;53.164;8.610;2023-02-26T17:58:30;4.18;;;1.60;;
74777;SDS011;63298;53.164;8.610;2023-02-26T18:01:14;4.40;;;1.95;;
74777;SDS011;63298;53.164;8.610;2023-02-26T18:03:40;3.92;;;2.28;;
74777;SDS011;63298;53.164;8.610;2023-02-26T18:06:05;5.22;;;1.92;;
74777;SDS011;63298;53.164;8.610;2023-02-26T18:08:33;3.72;;;1.50;;
74777;SDS011;63298;53.164;8.610;2023-02-26T18:10:59;4.10;;;1.42;;
74777;SDS011;63298;53.164;8.610;2023-02-26T18:13:26;3.90;;;1.42;;
74777;SDS011;63298;53.164;8.610;2023-02-26T18:15:52;5.47;;;1.40;;
74777;SDS011;63298;53.164;8.610;2023-02-26T18:18:19;1.52;;;1.42;;
74777;SDS011;63298;53.164;8.610;2023-02-26T18:20:46;3.40;;;1.52;;
74777;SDS011;63298;53.164;8.610;2023-02-26T18:23:12;3.58;;;2.00;;
74777;SDS011;63298;53.164;8.610;2023-02-26T18:25:38;5.70;;;2.15;;
74777;SDS011;63298;53.164;8.610;2023-02-26T18:28:05;3.85;;;1.98;;